sensor_id;sensor_type;location;lat;lon;timestamp;P1;durP1;ratioP1;P2;durP2;ratioP2
10041;SDS011;5061;49.068;12.058;2023-03-26T00:00:05;1.80;;;1.20;;
10041;SDS011;5061;49.068;12.058;2023-03-26T00:03:28;0.80;;;0.80;;
10041;SDS011;5061;49.068;12.058;2023-03-26T00:06:49;1.10;;;0.80;;
10041;SDS011;5061;49.068;12.058;2023-03-26T00:10:10;1.77;;;0.97;;
10041;SDS011;5061;49.068;12.058;2023-03-26T00:13:30;1.63;;;1.53;;
10041;SDS011;5061;49.068;12.058;2023-03-26T00:16:52;1.97;;;1.03;;
10041;SDS011;5061;49.068;12.058;2023-03-26T00:20:13;2.50;;;1.00;;
10041;SDS011;5061;49.068;12.058;2023-03-26T00:23:34;1.07;;;0.70;;
10041;SDS011;5061;49.068;12.058;2023-03-26T00:26:55;2.80;;;1.30;;
10041;SDS011;5061;49.068;12.058;2023-03-26T00:30:15;2.97;;;0.87;;
10041;SDS011;5061;49.068;12.058;2023-03-26T00:33:36;5.87;;;1.20;;
10041;SDS011;5061;49.068;12.058;2023-03-26T00:36:59;2.83;;;1.33;;
10041;SDS011;5061;49.068;12.058;2023-03-26T00:40:22;2.20;;;0.90;;
10041;SDS011;5061;49.068;12.058;2023-03-26T00:43:44;1.50;;;1.10;;
10041;SDS011;5061;49.068;12.058;2023-03-26T00:47:05;1.37;;;1.07;;
10041;SDS011;5061;49.068;12.058;2023-03-26T00:50:26;1.10;;;1.00;;
10041;SDS011;5061;49.068;12.058;2023-03-26T00:53:48;5.20;;;1.10;;
10041;SDS011;5061;49.068;12.058;2023-03-26T00:57:09;1.30;;;1.10;;
10041;SDS011;5061;49.068;12.058;2023-03-26T01:00:33;4.10;;;1.03;;
10041;SDS011;5061;49.068;12.058;2023-03-26T01:03:56;3.27;;;1.30;;
10041;SDS011;5061;49.068;12.058;2023-03-26T01:07:18;7.60;;;2.40;;
10041;SDS011;5061;49.068;12.058;2023-03-26T01:10:41;4.63;;;1.30;;
10041;SDS011;5061;49.068;12.058;2023-03-26T01:14:20;1.10;;;0.80;;
10041;SDS011;5061;49.068;12.058;2023-03-26T01:17:43;4.10;;;1.07;;
10041;SDS011;5061;49.068;12.058;2023-03-26T01:21:03;4.00;;;1.17;;
10041;SDS011;5061;49.068;12.058;2023-03-26T01:24:24;6.50;;;1.33;;
10041;SDS011;5061;49.068;12.058;2023-03-26T01:27:55;4.67;;;1.20;;
10041;SDS011;5061;49.068;12.058;2023-03-26T01:31:19;3.37;;;1.03;;
10041;SDS011;5061;49.068;12.058;2023-03-26T01:35:05;2.27;;;1.23;;
10041;SDS011;5061;49.068;12.058;2023-03-26T01:42:12;1.80;;;1.00;;
10041;SDS011;5061;49.068;12.058;2023-03-26T01:45:40;7.73;;;1.43;;
10041;SDS011;5061;49.068;12.058;2023-03-26T01:49:04;4.87;;;0.90;;
10041;SDS011;5061;49.068;12.058;2023-03-26T01:52:31;1.63;;;1.10;;
10041;SDS011;5061;49.068;12.058;2023-03-26T02:03:31;5.13;;;1.03;;
10041;SDS011;5061;49.068;12.058;2023-03-26T02:06:59;3.93;;;1.03;;
10041;SDS011;5061;49.068;12.058;2023-03-26T02:10:25;1.13;;;0.83;;
10041;SDS011;5061;49.068;12.058;2023-03-26T02:13:49;3.03;;;1.47;;
10041;SDS011;5061;49.068;12.058;2023-03-26T02:17:10;3.10;;;1.13;;
10041;SDS011;5061;49.068;12.058;2023-03-26T02:20:31;2.60;;;1.43;;
10041;SDS011;5061;49.068;12.058;2023-03-26T02:23:53;2.13;;;1.00;;
10041;SDS011;5061;49.068;12.058;2023-03-26T02:27:21;4.10;;;1.30;;
10041;SDS011;5061;49.068;12.058;2023-03-26T02:30:42;5.33;;;1.80;;
10041;SDS011;5061;49.068;12.058;2023-03-26T02:34:04;3.73;;;1.13;;
10041;SDS011;5061;49.068;12.058;2023-03-26T02:37:25;5.40;;;1.17;;
10041;SDS011;5061;49.068;12.058;2023-03-26T02:40:45;2.03;;;1.00;;
10041;SDS011;5061;49.068;12.058;2023-03-26T02:44:06;2.60;;;0.90;;
10041;SDS011;5061;49.068;12.058;2023-03-26T02:47:27;1.20;;;0.77;;
10041;SDS011;5061;49.068;12.058;2023-03-26T02:50:47;1.30;;;1.00;;
10041;SDS011;5061;49.068;12.058;2023-03-26T02:54:13;1.90;;;0.80;;
10041;SDS011;5061;49.068;12.058;2023-03-26T02:57:35;1.73;;;1.20;;
10041;SDS011;5061;49.068;12.058;2023-03-26T03:00:56;3.10;;;1.20;;
10041;SDS011;5061;49.068;12.058;2023-03-26T03:04:17;9.10;;;1.53;;
10041;SDS011;5061;49.068;12.058;2023-03-26T03:07:38;4.33;;;1.73;;
10041;SDS011;5061;49.068;12.058;2023-03-26T03:11:00;3.30;;;1.43;;
10041;SDS011;5061;49.068;12.058;2023-03-26T03:14:31;3.00;;;1.20;;
10041;SDS011;5061;49.068;12.058;2023-03-26T03:17:51;10.53;;;1.83;;
10041;SDS011;5061;49.068;12.058;2023-03-26T03:21:12;2.93;;;1.20;;
10041;SDS011;5061;49.068;12.058;2023-03-26T03:24:33;1.63;;;1.00;;
10041;SDS011;5061;49.068;12.058;2023-03-26T03:27:53;3.20;;;1.10;;
10041;SDS011;5061;49.068;12.058;2023-03-26T03:31:14;5.43;;;1.37;;
10041;SDS011;5061;49.068;12.058;2023-03-26T03:34:36;3.20;;;1.20;;
10041;SDS011;5061;49.068;12.058;2023-03-26T03:37:57;6.10;;;1.40;;
10041;SDS011;5061;49.068;12.058;2023-03-26T03:41:19;7.23;;;1.27;;
10041;SDS011;5061;49.068;12.058;2023-03-26T03:44:39;6.60;;;1.40;;
10041;SDS011;5061;49.068;12.058;2023-03-26T03:48:00;4.10;;;1.30;;
10041;SDS011;5061;49.068;12.058;2023-03-26T03:51:21;7.60;;;1.50;;
10041;SDS011;5061;49.068;12.058;2023-03-26T03:54:41;3.20;;;1.30;;
10041;SDS011;5061;49.068;12.058;2023-03-26T03:58:02;2.23;;;1.20;;
10041;SDS011;5061;49.068;12.058;2023-03-26T04:01:25;4.33;;;1.33;;
10041;SDS011;5061;49.068;12.058;2023-03-26T04:04:45;3.23;;;1.13;;
10041;SDS011;5061;49.068;12.058;2023-03-26T04:08:09;1.70;;;1.00;;
10041;SDS011;5061;49.068;12.058;2023-03-26T04:11:29;3.07;;;1.00;;
10041;SDS011;5061;49.068;12.058;2023-03-26T04:14:50;1.53;;;0.90;;
10041;SDS011;5061;49.068;12.058;2023-03-26T04:18:11;1.00;;;0.87;;
10041;SDS011;5061;49.068;12.058;2023-03-26T04:21:31;3.47;;;1.30;;
10041;SDS011;5061;49.068;12.058;2023-03-26T04:24:56;1.77;;;0.90;;
10041;SDS011;5061;49.068;12.058;2023-03-26T04:28:35;1.60;;;1.00;;
10041;SDS011;5061;49.068;12.058;2023-03-26T04:32:05;1.10;;;0.70;;
10041;SDS011;5061;49.068;12.058;2023-03-26T04:35:31;2.20;;;0.80;;
10041;SDS011;5061;49.068;12.058;2023-03-26T04:38:56;2.20;;;0.87;;
10041;SDS011;5061;49.068;12.058;2023-03-26T04:42:21;1.53;;;0.90;;
10041;SDS011;5061;49.068;12.058;2023-03-26T04:45:42;1.87;;;1.00;;
10041;SDS011;5061;49.068;12.058;2023-03-26T04:49:04;1.70;;;1.00;;
10041;SDS011;5061;49.068;12.058;2023-03-26T04:52:25;3.03;;;1.00;;
10041;SDS011;5061;49.068;12.058;2023-03-26T04:59:21;1.03;;;0.90;;
10041;SDS011;5061;49.068;12.058;2023-03-26T05:02:44;1.00;;;0.83;;
10041;SDS011;5061;49.068;12.058;2023-03-26T05:06:09;2.60;;;1.40;;
10041;SDS011;5061;49.068;12.058;2023-03-26T05:09:30;5.13;;;1.33;;
10041;SDS011;5061;49.068;12.058;2023-03-26T05:12:51;1.40;;;0.80;;
10041;SDS011;5061;49.068;12.058;2023-03-26T05:16:12;1.27;;;0.90;;
10041;SDS011;5061;49.068;12.058;2023-03-26T05:19:33;2.10;;;1.00;;
10041;SDS011;5061;49.068;12.058;2023-03-26T05:22:54;4.20;;;1.10;;
10041;SDS011;5061;49.068;12.058;2023-03-26T05:26:15;2.80;;;1.07;;
10041;SDS011;5061;49.068;12.058;2023-03-26T05:29:35;4.90;;;1.10;;
10041;SDS011;5061;49.068;12.058;2023-03-26T05:32:56;2.27;;;0.90;;
10041;SDS011;5061;49.068;12.058;2023-03-26T05:36:17;2.23;;;1.17;;
10041;SDS011;5061;49.068;12.058;2023-03-26T05:39:38;3.30;;;1.20;;
10041;SDS011;5061;49.068;12.058;2023-03-26T05:43:00;2.87;;;1.40;;
10041;SDS011;5061;49.068;12.058;2023-03-26T05:46:20;2.87;;;1.73;;
10041;SDS011;5061;49.068;12.058;2023-03-26T05:49:42;1.03;;;0.93;;
10041;SDS011;5061;49.068;12.058;2023-03-26T05:53:02;1.00;;;0.90;;
10041;SDS011;5061;49.068;12.058;2023-03-26T05:56:23;1.63;;;1.20;;
10041;SDS011;5061;49.068;12.058;2023-03-26T05:59:43;2.00;;;1.57;;
10041;SDS011;5061;49.068;12.058;2023-03-26T06:03:04;2.60;;;1.10;;
10041;SDS011;5061;49.068;12.058;2023-03-26T06:06:25;1.50;;;0.90;;
10041;SDS011;5061;49.068;12.058;2023-03-26T06:09:45;1.93;;;1.30;;
10041;SDS011;5061;49.068;12.058;2023-03-26T06:13:06;1.90;;;1.10;;
10041;SDS011;5061;49.068;12.058;2023-03-26T06:16:27;2.37;;;1.20;;
10041;SDS011;5061;49.068;12.058;2023-03-26T06:19:47;0.90;;;0.80;;
10041;SDS011;5061;49.068;12.058;2023-03-26T06:23:08;1.33;;;0.90;;
10041;SDS011;5061;49.068;12.058;2023-03-26T06:26:29;1.40;;;1.20;;
10041;SDS011;5061;49.068;12.058;2023-03-26T06:29:49;2.30;;;1.13;;
10041;SDS011;5061;49.068;12.058;2023-03-26T06:33:10;1.90;;;1.30;;
10041;SDS011;5061;49.068;12.058;2023-03-26T06:36:31;3.23;;;1.50;;
10041;SDS011;5061;49.068;12.058;2023-03-26T06:39:52;1.40;;;1.30;;
10041;SDS011;5061;49.068;12.058;2023-03-26T06:43:12;1.60;;;1.27;;
10041;SDS011;5061;49.068;12.058;2023-03-26T06:46:33;1.60;;;1.30;;
10041;SDS011;5061;49.068;12.058;2023-03-26T06:49:53;4.00;;;1.00;;
10041;SDS011;5061;49.068;12.058;2023-03-26T06:53:14;1.77;;;1.20;;
10041;SDS011;5061;49.068;12.058;2023-03-26T06:56:35;2.43;;;1.20;;
10041;SDS011;5061;49.068;12.058;2023-03-26T06:59:55;1.20;;;0.90;;
10041;SDS011;5061;49.068;12.058;2023-03-26T07:03:16;2.93;;;1.50;;
10041;SDS011;5061;49.068;12.058;2023-03-26T07:06:36;3.20;;;1.30;;
10041;SDS011;5061;49.068;12.058;2023-03-26T07:09:57;2.30;;;1.20;;
10041;SDS011;5061;49.068;12.058;2023-03-26T07:13:18;4.13;;;1.40;;
10041;SDS011;5061;49.068;12.058;2023-03-26T07:16:38;1.50;;;1.30;;
10041;SDS011;5061;49.068;12.058;2023-03-26T07:19:59;1.30;;;1.10;;
10041;SDS011;5061;49.068;12.058;2023-03-26T07:23:21;3.97;;;1.33;;
10041;SDS011;5061;49.068;12.058;2023-03-26T07:34:37;1.47;;;1.00;;
10041;SDS011;5061;49.068;12.058;2023-03-26T07:45:13;2.10;;;1.00;;
10041;SDS011;5061;49.068;12.058;2023-03-26T07:48:52;5.13;;;1.47;;
10041;SDS011;5061;49.068;12.058;2023-03-26T07:52:16;1.97;;;1.30;;
10041;SDS011;5061;49.068;12.058;2023-03-26T07:55:39;1.77;;;1.30;;
10041;SDS011;5061;49.068;12.058;2023-03-26T07:59:18;5.13;;;1.47;;
10041;SDS011;5061;49.068;12.058;2023-03-26T08:06:38;2.70;;;1.20;;
10041;SDS011;5061;49.068;12.058;2023-03-26T08:10:20;3.90;;;1.40;;
10041;SDS011;5061;49.068;12.058;2023-03-26T08:17:39;6.97;;;1.37;;
10041;SDS011;5061;49.068;12.058;2023-03-26T08:21:17;2.20;;;1.23;;
10041;SDS011;5061;49.068;12.058;2023-03-26T08:28:44;3.27;;;1.50;;
10041;SDS011;5061;49.068;12.058;2023-03-26T08:32:13;1.53;;;1.20;;
10041;SDS011;5061;49.068;12.058;2023-03-26T08:35:40;2.77;;;1.57;;
10041;SDS011;5061;49.068;12.058;2023-03-26T08:39:03;3.13;;;1.40;;
10041;SDS011;5061;49.068;12.058;2023-03-26T08:46:35;4.50;;;1.50;;
10041;SDS011;5061;49.068;12.058;2023-03-26T08:53:42;2.03;;;1.30;;
10041;SDS011;5061;49.068;12.058;2023-03-26T09:04:40;3.10;;;1.30;;
10041;SDS011;5061;49.068;12.058;2023-03-26T09:12:31;5.57;;;2.57;;
10041;SDS011;5061;49.068;12.058;2023-03-26T09:31:02;3.23;;;2.07;;
10041;SDS011;5061;49.068;12.058;2023-03-26T09:39:08;2.80;;;2.23;;
10041;SDS011;5061;49.068;12.058;2023-03-26T09:49:50;8.27;;;3.43;;
10041;SDS011;5061;49.068;12.058;2023-03-26T10:12:10;4.33;;;2.37;;
10041;SDS011;5061;49.068;12.058;2023-03-26T10:19:35;6.20;;;2.67;;
10041;SDS011;5061;49.068;12.058;2023-03-26T10:30:58;4.70;;;1.90;;
10041;SDS011;5061;49.068;12.058;2023-03-26T10:38:00;3.33;;;1.87;;
10041;SDS011;5061;49.068;12.058;2023-03-26T10:49:28;2.87;;;1.57;;
10041;SDS011;5061;49.068;12.058;2023-03-26T10:53:07;3.40;;;1.40;;
10041;SDS011;5061;49.068;12.058;2023-03-26T10:56:44;2.70;;;1.27;;
10041;SDS011;5061;49.068;12.058;2023-03-26T11:00:15;2.40;;;1.50;;
10041;SDS011;5061;49.068;12.058;2023-03-26T11:03:46;4.37;;;1.70;;
10041;SDS011;5061;49.068;12.058;2023-03-26T11:10:41;2.57;;;1.10;;
10041;SDS011;5061;49.068;12.058;2023-03-26T11:17:55;2.83;;;1.40;;
10041;SDS011;5061;49.068;12.058;2023-03-26T11:28:55;2.73;;;1.37;;
10041;SDS011;5061;49.068;12.058;2023-03-26T11:32:22;1.77;;;1.20;;
10041;SDS011;5061;49.068;12.058;2023-03-26T11:36:06;4.47;;;2.07;;
10041;SDS011;5061;49.068;12.058;2023-03-26T11:39:35;3.40;;;1.60;;
10041;SDS011;5061;49.068;12.058;2023-03-26T11:43:09;2.10;;;1.40;;
10041;SDS011;5061;49.068;12.058;2023-03-26T11:46:33;3.77;;;1.67;;
10041;SDS011;5061;49.068;12.058;2023-03-26T11:49:59;2.10;;;1.27;;
10041;SDS011;5061;49.068;12.058;2023-03-26T11:53:24;5.30;;;2.20;;
10041;SDS011;5061;49.068;12.058;2023-03-26T11:56:53;4.53;;;1.50;;
10041;SDS011;5061;49.068;12.058;2023-03-26T12:00:25;4.50;;;1.60;;
10041;SDS011;5061;49.068;12.058;2023-03-26T12:03:58;6.20;;;1.40;;
10041;SDS011;5061;49.068;12.058;2023-03-26T12:07:33;1.87;;;1.03;;
10041;SDS011;5061;49.068;12.058;2023-03-26T12:11:02;3.23;;;1.10;;
10041;SDS011;5061;49.068;12.058;2023-03-26T12:14:33;3.60;;;1.30;;
10041;SDS011;5061;49.068;12.058;2023-03-26T12:17:55;1.93;;;1.57;;
10041;SDS011;5061;49.068;12.058;2023-03-26T12:21:46;2.83;;;1.50;;
10041;SDS011;5061;49.068;12.058;2023-03-26T12:25:25;2.63;;;1.20;;
10041;SDS011;5061;49.068;12.058;2023-03-26T12:28:56;3.47;;;1.80;;
10041;SDS011;5061;49.068;12.058;2023-03-26T12:32:32;2.63;;;1.37;;
10041;SDS011;5061;49.068;12.058;2023-03-26T12:35:57;2.33;;;1.70;;
10041;SDS011;5061;49.068;12.058;2023-03-26T12:39:36;3.30;;;1.67;;
10041;SDS011;5061;49.068;12.058;2023-03-26T12:43:03;3.03;;;1.63;;
10041;SDS011;5061;49.068;12.058;2023-03-26T12:46:39;1.67;;;1.30;;
10041;SDS011;5061;49.068;12.058;2023-03-26T12:50:02;4.63;;;1.43;;
10041;SDS011;5061;49.068;12.058;2023-03-26T13:00:43;2.90;;;1.50;;
10041;SDS011;5061;49.068;12.058;2023-03-26T13:07:49;3.10;;;1.30;;
10041;SDS011;5061;49.068;12.058;2023-03-26T13:40:23;1.43;;;1.30;;
10041;SDS011;5061;49.068;12.058;2023-03-26T13:47:37;3.03;;;1.57;;
10041;SDS011;5061;49.068;12.058;2023-03-26T13:58:07;4.47;;;1.57;;
10041;SDS011;5061;49.068;12.058;2023-03-26T14:01:36;4.90;;;1.20;;
10041;SDS011;5061;49.068;12.058;2023-03-26T14:05:07;1.83;;;1.47;;
10041;SDS011;5061;49.068;12.058;2023-03-26T14:08:32;6.53;;;1.70;;
10041;SDS011;5061;49.068;12.058;2023-03-26T14:15:50;2.50;;;1.40;;
10041;SDS011;5061;49.068;12.058;2023-03-26T14:41:05;1.30;;;1.10;;
10041;SDS011;5061;49.068;12.058;2023-03-26T14:48:27;1.33;;;0.97;;
10041;SDS011;5061;49.068;12.058;2023-03-26T14:52:09;2.70;;;1.10;;
10041;SDS011;5061;49.068;12.058;2023-03-26T15:03:38;0.90;;;0.90;;
10041;SDS011;5061;49.068;12.058;2023-03-26T15:45:38;1.30;;;1.20;;
10041;SDS011;5061;49.068;12.058;2023-03-26T15:52:44;1.50;;;1.27;;
10041;SDS011;5061;49.068;12.058;2023-03-26T16:04:00;1.80;;;1.27;;
10041;SDS011;5061;49.068;12.058;2023-03-26T16:12:31;1.83;;;1.07;;
10041;SDS011;5061;49.068;12.058;2023-03-26T16:15:32;1.60;;;1.30;;
10041;SDS011;5061;49.068;12.058;2023-03-26T16:22:53;1.70;;;0.90;;
10041;SDS011;5061;49.068;12.058;2023-03-26T16:30:29;1.73;;;1.20;;
10041;SDS011;5061;49.068;12.058;2023-03-26T16:33:52;0.80;;;0.80;;
10041;SDS011;5061;49.068;12.058;2023-03-26T16:37:39;1.47;;;1.00;;
10041;SDS011;5061;49.068;12.058;2023-03-26T16:41:16;0.90;;;0.80;;
10041;SDS011;5061;49.068;12.058;2023-03-26T16:44:48;1.03;;;0.90;;
10041;SDS011;5061;49.068;12.058;2023-03-26T16:49:03;1.73;;;0.90;;
10041;SDS011;5061;49.068;12.058;2023-03-26T16:52:40;1.00;;;0.90;;
10041;SDS011;5061;49.068;12.058;2023-03-26T16:56:26;0.80;;;0.70;;
10041;SDS011;5061;49.068;12.058;2023-03-26T17:19:30;1.07;;;0.93;;
10041;SDS011;5061;49.068;12.058;2023-03-26T17:41:54;1.57;;;1.00;;
10041;SDS011;5061;49.068;12.058;2023-03-26T17:45:33;2.00;;;1.00;;
10041;SDS011;5061;49.068;12.058;2023-03-26T17:56:14;2.13;;;1.00;;
10041;SDS011;5061;49.068;12.058;2023-03-26T17:59:39;2.20;;;1.10;;
10041;SDS011;5061;49.068;12.058;2023-03-26T18:03:19;1.00;;;0.83;;
10041;SDS011;5061;49.068;12.058;2023-03-26T18:18:00;1.83;;;1.20;;
10041;SDS011;5061;49.068;12.058;2023-03-26T18:24:59;0.97;;;0.83;;
10041;SDS011;5061;49.068;12.058;2023-03-26T18:28:27;1.20;;;0.90;;
10041;SDS011;5061;49.068;12.058;2023-03-26T18:35:50;2.43;;;1.07;;
10041;SDS011;5061;49.068;12.058;2023-03-26T18:39:13;1.37;;;1.00;;
10041;SDS011;5061;49.068;12.058;2023-03-26T18:42:36;1.23;;;1.00;;
10041;SDS011;5061;49.068;12.058;2023-03-26T18:46:00;1.73;;;1.20;;
10041;SDS011;5061;49.068;12.058;2023-03-26T18:49:23;1.40;;;0.90;;
10041;SDS011;5061;49.068;12.058;2023-03-26T18:52:48;1.77;;;1.20;;
10041;SDS011;5061;49.068;12.058;2023-03-26T18:59:48;1.30;;;1.00;;
10041;SDS011;5061;49.068;12.058;2023-03-26T19:03:15;1.80;;;1.00;;
10041;SDS011;5061;49.068;12.058;2023-03-26T19:06:40;1.60;;;1.20;;
10041;SDS011;5061;49.068;12.058;2023-03-26T19:10:06;1.57;;;1.00;;
10041;SDS011;5061;49.068;12.058;2023-03-26T19:13:35;1.00;;;0.87;;
10041;SDS011;5061;49.068;12.058;2023-03-26T19:17:02;4.00;;;0.90;;
10041;SDS011;5061;49.068;12.058;2023-03-26T19:20:26;2.23;;;1.20;;
10041;SDS011;5061;49.068;12.058;2023-03-26T19:23:52;1.10;;;1.00;;
10041;SDS011;5061;49.068;12.058;2023-03-26T19:27:17;1.00;;;0.80;;
10041;SDS011;5061;49.068;12.058;2023-03-26T19:30:38;1.27;;;1.00;;
10041;SDS011;5061;49.068;12.058;2023-03-26T19:37:53;1.80;;;1.13;;
10041;SDS011;5061;49.068;12.058;2023-03-26T19:41:17;5.43;;;1.50;;
10041;SDS011;5061;49.068;12.058;2023-03-26T19:44:40;2.33;;;1.37;;
10041;SDS011;5061;49.068;12.058;2023-03-26T19:48:04;1.47;;;1.10;;
10041;SDS011;5061;49.068;12.058;2023-03-26T19:51:34;1.20;;;1.07;;
10041;SDS011;5061;49.068;12.058;2023-03-26T19:55:01;2.30;;;1.03;;
10041;SDS011;5061;49.068;12.058;2023-03-26T19:58:23;2.00;;;1.10;;
10041;SDS011;5061;49.068;12.058;2023-03-26T20:01:52;3.97;;;1.63;;
10041;SDS011;5061;49.068;12.058;2023-03-26T20:05:18;2.47;;;1.13;;
10041;SDS011;5061;49.068;12.058;2023-03-26T20:09:03;1.43;;;1.10;;
10041;SDS011;5061;49.068;12.058;2023-03-26T20:12:41;1.37;;;0.90;;
10041;SDS011;5061;49.068;12.058;2023-03-26T20:19:44;2.30;;;0.93;;
10041;SDS011;5061;49.068;12.058;2023-03-26T20:23:45;1.13;;;0.93;;
10041;SDS011;5061;49.068;12.058;2023-03-26T20:27:22;2.30;;;1.00;;
10041;SDS011;5061;49.068;12.058;2023-03-26T20:31:30;1.03;;;0.90;;
10041;SDS011;5061;49.068;12.058;2023-03-26T20:34:51;1.50;;;1.03;;
10041;SDS011;5061;49.068;12.058;2023-03-26T20:38:42;2.30;;;0.97;;
10041;SDS011;5061;49.068;12.058;2023-03-26T20:42:16;0.80;;;0.80;;
10041;SDS011;5061;49.068;12.058;2023-03-26T20:45:38;0.93;;;0.80;;
10041;SDS011;5061;49.068;12.058;2023-03-26T20:49:17;1.47;;;0.70;;
10041;SDS011;5061;49.068;12.058;2023-03-26T20:52:51;1.50;;;0.90;;
10041;SDS011;5061;49.068;12.058;2023-03-26T20:56:14;1.20;;;0.93;;
10041;SDS011;5061;49.068;12.058;2023-03-26T20:59:38;1.97;;;1.00;;
10041;SDS011;5061;49.068;12.058;2023-03-26T21:03:01;1.00;;;0.80;;
10041;SDS011;5061;49.068;12.058;2023-03-26T21:06:22;2.60;;;1.03;;
10041;SDS011;5061;49.068;12.058;2023-03-26T21:09:45;1.53;;;0.90;;
10041;SDS011;5061;49.068;12.058;2023-03-26T21:16:47;1.73;;;0.90;;
10041;SDS011;5061;49.068;12.058;2023-03-26T21:20:12;1.67;;;0.90;;
10041;SDS011;5061;49.068;12.058;2023-03-26T21:23:40;1.53;;;0.90;;
10041;SDS011;5061;49.068;12.058;2023-03-26T21:27:39;1.87;;;1.00;;
10041;SDS011;5061;49.068;12.058;2023-03-26T21:31:14;2.80;;;0.90;;
10041;SDS011;5061;49.068;12.058;2023-03-26T21:34:43;1.43;;;0.80;;
10041;SDS011;5061;49.068;12.058;2023-03-26T21:38:08;1.07;;;0.90;;
10041;SDS011;5061;49.068;12.058;2023-03-26T21:41:41;1.00;;;0.80;;
10041;SDS011;5061;49.068;12.058;2023-03-26T21:45:10;2.00;;;0.90;;
10041;SDS011;5061;49.068;12.058;2023-03-26T21:48:32;1.30;;;0.80;;
10041;SDS011;5061;49.068;12.058;2023-03-26T21:51:54;1.20;;;0.80;;
10041;SDS011;5061;49.068;12.058;2023-03-26T21:55:16;0.90;;;0.80;;
10041;SDS011;5061;49.068;12.058;2023-03-26T21:58:46;5.83;;;1.10;;
10041;SDS011;5061;49.068;12.058;2023-03-26T22:02:31;1.10;;;1.00;;
10041;SDS011;5061;49.068;12.058;2023-03-26T22:06:05;0.70;;;0.70;;
10041;SDS011;5061;49.068;12.058;2023-03-26T22:09:33;1.57;;;0.90;;
10041;SDS011;5061;49.068;12.058;2023-03-26T22:12:58;2.67;;;1.00;;
10041;SDS011;5061;49.068;12.058;2023-03-26T22:16:22;3.80;;;1.20;;
10041;SDS011;5061;49.068;12.058;2023-03-26T22:19:44;0.80;;;0.80;;
10041;SDS011;5061;49.068;12.058;2023-03-26T22:23:08;1.93;;;1.00;;
10041;SDS011;5061;49.068;12.058;2023-03-26T22:26:31;1.10;;;1.00;;
10041;SDS011;5061;49.068;12.058;2023-03-26T22:29:52;1.17;;;1.07;;
10041;SDS011;5061;49.068;12.058;2023-03-26T22:33:14;1.23;;;1.13;;
10041;SDS011;5061;49.068;12.058;2023-03-26T22:36:44;2.97;;;1.17;;
10041;SDS011;5061;49.068;12.058;2023-03-26T22:40:10;0.83;;;0.80;;
10041;SDS011;5061;49.068;12.058;2023-03-26T22:43:35;1.03;;;0.93;;
10041;SDS011;5061;49.068;12.058;2023-03-26T22:47:00;1.10;;;1.00;;
10041;SDS011;5061;49.068;12.058;2023-03-26T22:50:27;1.43;;;0.97;;
10041;SDS011;5061;49.068;12.058;2023-03-26T22:53:51;1.67;;;1.00;;
10041;SDS011;5061;49.068;12.058;2023-03-26T22:57:12;1.10;;;1.00;;
10041;SDS011;5061;49.068;12.058;2023-03-26T23:00:34;1.43;;;0.97;;
10041;SDS011;5061;49.068;12.058;2023-03-26T23:03:59;1.47;;;1.17;;
10041;SDS011;5061;49.068;12.058;2023-03-26T23:07:20;1.10;;;1.00;;
10041;SDS011;5061;49.068;12.058;2023-03-26T23:10:41;1.43;;;1.27;;
10041;SDS011;5061;49.068;12.058;2023-03-26T23:14:03;1.20;;;1.03;;
10041;SDS011;5061;49.068;12.058;2023-03-26T23:17:28;1.63;;;1.10;;
10041;SDS011;5061;49.068;12.058;2023-03-26T23:20:56;1.30;;;1.00;;
10041;SDS011;5061;49.068;12.058;2023-03-26T23:24:18;1.70;;;0.97;;
10041;SDS011;5061;49.068;12.058;2023-03-26T23:27:48;1.30;;;1.20;;
10041;SDS011;5061;49.068;12.058;2023-03-26T23:31:10;1.33;;;1.10;;
10041;SDS011;5061;49.068;12.058;2023-03-26T23:34:33;1.00;;;0.90;;
10041;SDS011;5061;49.068;12.058;2023-03-26T23:37:56;1.00;;;0.90;;
10041;SDS011;5061;49.068;12.058;2023-03-26T23:41:21;1.00;;;0.90;;
10041;SDS011;5061;49.068;12.058;2023-03-26T23:44:44;2.03;;;1.30;;
10041;SDS011;5061;49.068;12.058;2023-03-26T23:48:08;1.30;;;1.20;;
10041;SDS011;5061;49.068;12.058;2023-03-26T23:51:32;3.37;;;1.30;;
10041;SDS011;5061;49.068;12.058;2023-03-26T23:54:56;1.50;;;1.20;;
10041;SDS011;5061;49.068;12.058;2023-03-26T23:58:21;1.37;;;1.00;;
